sensor_id;sensor_type;location;lat;lon;timestamp;pressure;altitude;pressure_sealevel;temperature;humidity
18821;BME280;9539;59.332;18.034;2023-02-21T00:00:14;98616.66;;;10.13;54.76
18821;BME280;9539;59.332;18.034;2023-02-21T00:02:55;98620.00;;;10.34;54.27
18821;BME280;9539;59.332;18.034;2023-02-21T00:05:34;98623.34;;;9.59;56.06
18821;BME280;9539;59.332;18.034;2023-02-21T00:08:14;98623.72;;;9.16;58.46
18821;BME280;9539;59.332;18.034;2023-02-21T00:10:53;98633.53;;;9.45;58.69
18821;BME280;9539;59.332;18.034;2023-02-21T00:13:35;98640.34;;;9.47;58.00
18821;BME280;9539;59.332;18.034;2023-02-21T00:16:15;98645.66;;;9.86;56.95
18821;BME280;9539;59.332;18.034;2023-02-21T00:18:56;98639.94;;;10.00;56.29
18821;BME280;9539;59.332;18.034;2023-02-21T00:21:35;98647.50;;;9.76;56.27
18821;BME280;9539;59.332;18.034;2023-02-21T00:24:15;98654.88;;;9.82;57.19
18821;BME280;9539;59.332;18.034;2023-02-21T00:26:55;98653.19;;;10.00;56.31
18821;BME280;9539;59.332;18.034;2023-02-21T00:29:34;98647.53;;;8.76;60.96
18821;BME280;9539;59.332;18.034;2023-02-21T00:32:14;98652.81;;;8.67;62.05
18821;BME280;9539;59.332;18.034;2023-02-21T00:34:55;98650.75;;;8.29;64.63
18821;BME280;9539;59.332;18.034;2023-02-21T00:37:34;98661.50;;;8.88;63.18
18821;BME280;9539;59.332;18.034;2023-02-21T00:40:14;98676.13;;;7.25;74.90
18821;BME280;9539;59.332;18.034;2023-02-21T00:42:54;98679.88;;;8.59;67.27
18821;BME280;9539;59.332;18.034;2023-02-21T00:45:33;98678.44;;;7.93;69.84
18821;BME280;9539;59.332;18.034;2023-02-21T00:48:18;98683.06;;;9.23;64.48
18821;BME280;9539;59.332;18.034;2023-02-21T00:50:59;98689.81;;;8.97;65.01
18821;BME280;9539;59.332;18.034;2023-02-21T00:53:38;98694.06;;;8.89;66.37
18821;BME280;9539;59.332;18.034;2023-02-21T00:56:18;98712.28;;;8.82;64.36
18821;BME280;9539;59.332;18.034;2023-02-21T00:58:57;98707.44;;;8.87;64.83
18821;BME280;9539;59.332;18.034;2023-02-21T01:01:37;98713.31;;;9.90;59.71
18821;BME280;9539;59.332;18.034;2023-02-21T01:04:16;98711.66;;;8.27;67.08
18821;BME280;9539;59.332;18.034;2023-02-21T01:06:57;98724.25;;;9.07;66.08
18821;BME280;9539;59.332;18.034;2023-02-21T01:09:36;98724.72;;;9.81;59.99
18821;BME280;9539;59.332;18.034;2023-02-21T01:12:16;98725.00;;;10.07;57.94
18821;BME280;9539;59.332;18.034;2023-02-21T01:14:56;98742.47;;;10.38;56.16
18821;BME280;9539;59.332;18.034;2023-02-21T01:17:36;98760.66;;;9.74;56.64
18821;BME280;9539;59.332;18.034;2023-02-21T01:20:15;98762.94;;;9.38;62.24
18821;BME280;9539;59.332;18.034;2023-02-21T01:22:57;98768.91;;;9.80;59.83
18821;BME280;9539;59.332;18.034;2023-02-21T01:25:35;98776.38;;;9.56;59.49
18821;BME280;9539;59.332;18.034;2023-02-21T01:28:15;98776.59;;;10.12;57.23
18821;BME280;9539;59.332;18.034;2023-02-21T01:30:54;98792.00;;;9.69;59.14
18821;BME280;9539;59.332;18.034;2023-02-21T01:33:36;98794.66;;;9.29;62.38
18821;BME280;9539;59.332;18.034;2023-02-21T01:36:15;98798.53;;;9.25;62.56
18821;BME280;9539;59.332;18.034;2023-02-21T01:38:56;98803.75;;;9.85;60.18
18821;BME280;9539;59.332;18.034;2023-02-21T01:41:35;98815.72;;;9.09;61.50
18821;BME280;9539;59.332;18.034;2023-02-21T01:44:34;98826.13;;;9.62;59.40
18821;BME280;9539;59.332;18.034;2023-02-21T01:47:14;98829.06;;;9.59;58.95
18821;BME280;9539;59.332;18.034;2023-02-21T01:49:53;98828.03;;;10.00;58.37
18821;BME280;9539;59.332;18.034;2023-02-21T01:52:33;98836.00;;;9.60;60.04
18821;BME280;9539;59.332;18.034;2023-02-21T01:55:14;98847.13;;;9.94;59.64
18821;BME280;9539;59.332;18.034;2023-02-21T01:57:54;98851.50;;;10.14;58.58
18821;BME280;9539;59.332;18.034;2023-02-21T02:00:34;98855.53;;;9.59;57.97
18821;BME280;9539;59.332;18.034;2023-02-21T02:03:16;98864.03;;;8.91;66.34
18821;BME280;9539;59.332;18.034;2023-02-21T02:05:59;98864.75;;;10.14;59.47
18821;BME280;9539;59.332;18.034;2023-02-21T02:08:39;98862.88;;;10.35;57.99
18821;BME280;9539;59.332;18.034;2023-02-21T02:11:47;98874.84;;;10.20;57.87
18821;BME280;9539;59.332;18.034;2023-02-21T02:14:50;98880.44;;;9.26;61.03
18821;BME280;9539;59.332;18.034;2023-02-21T02:17:23;98885.13;;;9.43;61.27
18821;BME280;9539;59.332;18.034;2023-02-21T02:26:04;98901.78;;;8.93;65.51
18821;BME280;9539;59.332;18.034;2023-02-21T02:28:58;98909.59;;;7.75;73.66
18821;BME280;9539;59.332;18.034;2023-02-21T02:32:04;98915.81;;;8.72;69.80
18821;BME280;9539;59.332;18.034;2023-02-21T02:34:41;98920.16;;;8.62;69.25
18821;BME280;9539;59.332;18.034;2023-02-21T02:37:13;98910.75;;;8.49;69.93
18821;BME280;9539;59.332;18.034;2023-02-21T02:39:41;98914.69;;;9.28;65.01
18821;BME280;9539;59.332;18.034;2023-02-21T02:42:10;98926.88;;;9.60;62.19
18821;BME280;9539;59.332;18.034;2023-02-21T02:44:38;98931.97;;;10.13;59.04
18821;BME280;9539;59.332;18.034;2023-02-21T02:47:02;98926.97;;;9.29;63.30
18821;BME280;9539;59.332;18.034;2023-02-21T02:49:28;98943.38;;;9.43;62.96
18821;BME280;9539;59.332;18.034;2023-02-21T02:51:52;98947.63;;;8.82;65.86
18821;BME280;9539;59.332;18.034;2023-02-21T02:54:14;98951.09;;;8.82;67.26
18821;BME280;9539;59.332;18.034;2023-02-21T02:56:36;98956.53;;;8.81;67.95
18821;BME280;9539;59.332;18.034;2023-02-21T02:59:00;98969.38;;;8.86;66.18
18821;BME280;9539;59.332;18.034;2023-02-21T03:01:49;98977.97;;;9.31;64.94
18821;BME280;9539;59.332;18.034;2023-02-21T03:04:32;98970.91;;;7.78;74.53
18821;BME280;9539;59.332;18.034;2023-02-21T03:07:07;98972.38;;;8.92;69.65
18821;BME280;9539;59.332;18.034;2023-02-21T03:09:40;98968.78;;;8.82;70.40
18821;BME280;9539;59.332;18.034;2023-02-21T03:12:07;98971.53;;;8.15;73.14
18821;BME280;9539;59.332;18.034;2023-02-21T03:14:35;98982.66;;;7.06;85.66
18821;BME280;9539;59.332;18.034;2023-02-21T03:17:00;98993.31;;;7.04;88.03
18821;BME280;9539;59.332;18.034;2023-02-21T03:19:25;98992.53;;;8.17;76.86
18821;BME280;9539;59.332;18.034;2023-02-21T03:21:51;99004.91;;;9.04;69.79
18821;BME280;9539;59.332;18.034;2023-02-21T03:24:16;99011.41;;;9.00;68.57
18821;BME280;9539;59.332;18.034;2023-02-21T03:26:41;99019.03;;;9.14;69.66
18821;BME280;9539;59.332;18.034;2023-02-21T03:29:05;99041.03;;;8.82;70.56
18821;BME280;9539;59.332;18.034;2023-02-21T03:31:33;99050.31;;;9.41;67.62
18821;BME280;9539;59.332;18.034;2023-02-21T03:33:57;99052.75;;;9.12;68.34
18821;BME280;9539;59.332;18.034;2023-02-21T03:36:19;99064.28;;;9.11;68.18
18821;BME280;9539;59.332;18.034;2023-02-21T03:38:41;99059.72;;;9.45;67.15
18821;BME280;9539;59.332;18.034;2023-02-21T03:41:06;99055.28;;;9.34;65.38
18821;BME280;9539;59.332;18.034;2023-02-21T03:43:28;99067.69;;;9.66;65.87
18821;BME280;9539;59.332;18.034;2023-02-21T03:45:50;99069.44;;;9.76;63.94
18821;BME280;9539;59.332;18.034;2023-02-21T03:48:12;99075.28;;;9.80;63.83
18821;BME280;9539;59.332;18.034;2023-02-21T03:50:34;99084.53;;;9.85;62.92
18821;BME280;9539;59.332;18.034;2023-02-21T03:52:56;99085.66;;;10.03;60.90
18821;BME280;9539;59.332;18.034;2023-02-21T03:55:18;99093.59;;;10.03;61.39
18821;BME280;9539;59.332;18.034;2023-02-21T03:57:42;99101.44;;;9.09;64.68
18821;BME280;9539;59.332;18.034;2023-02-21T04:00:04;99111.25;;;9.61;64.51
18821;BME280;9539;59.332;18.034;2023-02-21T04:02:27;99119.91;;;10.16;61.36
18821;BME280;9539;59.332;18.034;2023-02-21T04:04:49;99116.81;;;9.58;63.50
18821;BME280;9539;59.332;18.034;2023-02-21T04:07:11;99101.31;;;9.75;62.60
18821;BME280;9539;59.332;18.034;2023-02-21T04:09:32;99124.09;;;8.80;68.69
18821;BME280;9539;59.332;18.034;2023-02-21T04:11:54;99132.16;;;8.67;73.69
18821;BME280;9539;59.332;18.034;2023-02-21T04:14:18;99132.59;;;9.81;64.03
18821;BME280;9539;59.332;18.034;2023-02-21T04:16:40;99143.97;;;9.92;62.17
18821;BME280;9539;59.332;18.034;2023-02-21T04:19:02;99147.28;;;9.85;61.22
18821;BME280;9539;59.332;18.034;2023-02-21T04:21:24;99147.78;;;8.93;69.60
18821;BME280;9539;59.332;18.034;2023-02-21T04:23:46;99143.25;;;9.70;64.17
18821;BME280;9539;59.332;18.034;2023-02-21T04:26:08;99161.38;;;10.06;61.25
18821;BME280;9539;59.332;18.034;2023-02-21T04:28:30;99169.59;;;9.39;64.74
18821;BME280;9539;59.332;18.034;2023-02-21T04:30:53;99175.19;;;9.57;61.96
18821;BME280;9539;59.332;18.034;2023-02-21T04:33:15;99181.00;;;9.83;62.36
18821;BME280;9539;59.332;18.034;2023-02-21T04:35:37;99182.53;;;10.38;59.25
18821;BME280;9539;59.332;18.034;2023-02-21T04:37:59;99187.88;;;9.74;59.68
18821;BME280;9539;59.332;18.034;2023-02-21T04:40:21;99194.16;;;9.30;63.31
18821;BME280;9539;59.332;18.034;2023-02-21T04:42:43;99209.47;;;7.30;79.22
18821;BME280;9539;59.332;18.034;2023-02-21T04:45:06;99211.53;;;8.43;72.17
18821;BME280;9539;59.332;18.034;2023-02-21T04:47:29;99213.31;;;9.00;67.69
18821;BME280;9539;59.332;18.034;2023-02-21T04:49:51;99213.50;;;9.31;66.05
18821;BME280;9539;59.332;18.034;2023-02-21T04:52:13;99232.03;;;9.08;67.64
18821;BME280;9539;59.332;18.034;2023-02-21T04:54:35;99234.22;;;9.26;66.51
18821;BME280;9539;59.332;18.034;2023-02-21T04:56:57;99243.94;;;9.58;64.67
18821;BME280;9539;59.332;18.034;2023-02-21T04:59:19;99244.09;;;10.21;60.58
18821;BME280;9539;59.332;18.034;2023-02-21T05:01:41;99250.41;;;9.66;60.20
18821;BME280;9539;59.332;18.034;2023-02-21T05:04:04;99259.31;;;9.53;61.08
18821;BME280;9539;59.332;18.034;2023-02-21T05:06:27;99266.63;;;9.83;60.95
18821;BME280;9539;59.332;18.034;2023-02-21T05:08:50;99270.13;;;10.16;58.88
18821;BME280;9539;59.332;18.034;2023-02-21T05:11:13;99283.13;;;10.30;59.37
18821;BME280;9539;59.332;18.034;2023-02-21T05:13:35;99281.34;;;10.08;58.30
18821;BME280;9539;59.332;18.034;2023-02-21T05:15:57;99287.59;;;9.53;63.63
18821;BME280;9539;59.332;18.034;2023-02-21T05:18:19;99296.88;;;8.57;67.98
18821;BME280;9539;59.332;18.034;2023-02-21T05:20:49;99297.78;;;10.34;59.98
18821;BME280;9539;59.332;18.034;2023-02-21T05:23:11;99298.59;;;10.02;60.62
18821;BME280;9539;59.332;18.034;2023-02-21T05:25:36;99299.28;;;9.61;62.64
18821;BME280;9539;59.332;18.034;2023-02-21T05:27:58;99298.53;;;10.25;59.88
18821;BME280;9539;59.332;18.034;2023-02-21T05:30:21;99296.13;;;10.54;57.23
18821;BME280;9539;59.332;18.034;2023-02-21T05:32:44;99309.00;;;10.26;57.10
18821;BME280;9539;59.332;18.034;2023-02-21T05:35:07;99305.47;;;10.69;56.47
18821;BME280;9539;59.332;18.034;2023-02-21T05:37:31;99318.31;;;10.21;57.00
18821;BME280;9539;59.332;18.034;2023-02-21T05:39:53;99321.69;;;10.55;57.77
18821;BME280;9539;59.332;18.034;2023-02-21T05:42:15;99316.25;;;10.77;55.99
18821;BME280;9539;59.332;18.034;2023-02-21T05:44:37;99330.69;;;10.31;56.90
18821;BME280;9539;59.332;18.034;2023-02-21T05:46:59;99335.13;;;10.31;57.39
18821;BME280;9539;59.332;18.034;2023-02-21T05:49:21;99332.09;;;10.47;56.32
18821;BME280;9539;59.332;18.034;2023-02-21T05:51:43;99338.47;;;10.44;56.28
18821;BME280;9539;59.332;18.034;2023-02-21T05:54:08;99334.91;;;9.35;59.78
18821;BME280;9539;59.332;18.034;2023-02-21T05:56:36;99344.84;;;10.10;58.33
18821;BME280;9539;59.332;18.034;2023-02-21T05:58:58;99346.53;;;9.99;58.47
18821;BME280;9539;59.332;18.034;2023-02-21T06:01:20;99357.84;;;8.19;71.71
18821;BME280;9539;59.332;18.034;2023-02-21T06:03:42;99364.28;;;7.91;72.13
18821;BME280;9539;59.332;18.034;2023-02-21T06:06:05;99365.06;;;8.04;74.99
18821;BME280;9539;59.332;18.034;2023-02-21T06:08:27;99366.00;;;7.79;78.44
18821;BME280;9539;59.332;18.034;2023-02-21T06:10:50;99374.66;;;7.81;78.79
18821;BME280;9539;59.332;18.034;2023-02-21T06:13:12;99380.72;;;9.13;69.59
18821;BME280;9539;59.332;18.034;2023-02-21T06:15:34;99380.88;;;9.45;66.16
18821;BME280;9539;59.332;18.034;2023-02-21T06:17:56;99403.47;;;8.57;69.05
18821;BME280;9539;59.332;18.034;2023-02-21T06:20:18;99400.72;;;8.59;73.55
18821;BME280;9539;59.332;18.034;2023-02-21T06:22:40;99383.50;;;9.23;70.35
18821;BME280;9539;59.332;18.034;2023-02-21T06:25:01;99392.56;;;8.38;71.93
18821;BME280;9539;59.332;18.034;2023-02-21T06:27:25;99400.41;;;8.27;73.47
18821;BME280;9539;59.332;18.034;2023-02-21T06:29:47;99409.44;;;7.12;85.68
18821;BME280;9539;59.332;18.034;2023-02-21T06:32:09;99417.66;;;8.80;77.37
18821;BME280;9539;59.332;18.034;2023-02-21T06:34:30;99422.53;;;8.97;75.38
18821;BME280;9539;59.332;18.034;2023-02-21T06:36:53;99428.63;;;8.63;75.27
18821;BME280;9539;59.332;18.034;2023-02-21T06:39:15;99439.25;;;8.98;73.27
18821;BME280;9539;59.332;18.034;2023-02-21T06:41:37;99444.09;;;8.80;73.67
18821;BME280;9539;59.332;18.034;2023-02-21T06:44:01;99456.16;;;8.60;73.55
18821;BME280;9539;59.332;18.034;2023-02-21T06:46:24;99465.06;;;9.29;70.50
18821;BME280;9539;59.332;18.034;2023-02-21T06:48:47;99469.97;;;8.64;75.78
18821;BME280;9539;59.332;18.034;2023-02-21T06:51:09;99482.06;;;7.93;83.32
18821;BME280;9539;59.332;18.034;2023-02-21T06:53:30;99490.19;;;7.65;87.09
18821;BME280;9539;59.332;18.034;2023-02-21T06:55:52;99501.88;;;8.97;77.88
18821;BME280;9539;59.332;18.034;2023-02-21T06:58:14;99508.94;;;8.62;79.96
18821;BME280;9539;59.332;18.034;2023-02-21T07:00:38;99516.97;;;8.60;73.82
18821;BME280;9539;59.332;18.034;2023-02-21T07:03:00;99522.75;;;8.03;83.68
18821;BME280;9539;59.332;18.034;2023-02-21T07:05:21;99539.78;;;7.35;91.49
18821;BME280;9539;59.332;18.034;2023-02-21T07:07:46;99544.59;;;7.15;97.33
18821;BME280;9539;59.332;18.034;2023-02-21T07:10:08;99543.75;;;8.79;86.19
18821;BME280;9539;59.332;18.034;2023-02-21T07:12:30;99560.00;;;6.68;96.54
18821;BME280;9539;59.332;18.034;2023-02-21T07:14:53;99571.53;;;7.85;95.48
18821;BME280;9539;59.332;18.034;2023-02-21T07:17:16;99578.41;;;8.51;83.03
18821;BME280;9539;59.332;18.034;2023-02-21T07:19:38;99590.44;;;7.79;91.14
18821;BME280;9539;59.332;18.034;2023-02-21T07:22:01;99591.97;;;8.21;91.06
18821;BME280;9539;59.332;18.034;2023-02-21T07:24:23;99605.00;;;7.33;96.09
18821;BME280;9539;59.332;18.034;2023-02-21T07:26:45;99619.66;;;6.83;100.00
18821;BME280;9539;59.332;18.034;2023-02-21T07:29:07;99624.50;;;8.22;93.75
18821;BME280;9539;59.332;18.034;2023-02-21T07:31:29;99639.72;;;7.00;100.00
18821;BME280;9539;59.332;18.034;2023-02-21T07:33:52;99650.16;;;7.28;100.00
18821;BME280;9539;59.332;18.034;2023-02-21T07:36:14;99666.25;;;7.11;100.00
18821;BME280;9539;59.332;18.034;2023-02-21T07:38:36;99669.78;;;7.78;98.12
18821;BME280;9539;59.332;18.034;2023-02-21T07:41:00;99688.31;;;7.63;100.00
18821;BME280;9539;59.332;18.034;2023-02-21T07:43:23;99693.41;;;8.19;100.00
18821;BME280;9539;59.332;18.034;2023-02-21T07:45:45;99699.06;;;7.60;100.00
18821;BME280;9539;59.332;18.034;2023-02-21T07:48:07;99708.69;;;7.61;100.00
18821;BME280;9539;59.332;18.034;2023-02-21T07:50:31;99716.53;;;7.08;100.00
18821;BME280;9539;59.332;18.034;2023-02-21T07:52:53;99722.84;;;8.90;95.47
18821;BME280;9539;59.332;18.034;2023-02-21T07:55:16;99734.72;;;8.72;96.80
18821;BME280;9539;59.332;18.034;2023-02-21T07:57:38;99743.88;;;7.48;100.00
18821;BME280;9539;59.332;18.034;2023-02-21T08:00:00;99738.28;;;7.67;100.00
18821;BME280;9539;59.332;18.034;2023-02-21T08:02:22;99745.56;;;9.18;90.99
18821;BME280;9539;59.332;18.034;2023-02-21T08:04:44;99765.41;;;8.62;92.21
18821;BME280;9539;59.332;18.034;2023-02-21T08:07:12;99769.53;;;8.91;93.42
18821;BME280;9539;59.332;18.034;2023-02-21T08:09:34;99777.13;;;9.08;92.96
18821;BME280;9539;59.332;18.034;2023-02-21T08:11:57;99786.25;;;8.79;95.02
18821;BME280;9539;59.332;18.034;2023-02-21T08:14:19;99794.16;;;7.73;100.00
18821;BME280;9539;59.332;18.034;2023-02-21T08:16:41;99807.38;;;7.73;100.00
18821;BME280;9539;59.332;18.034;2023-02-21T08:19:03;99812.81;;;8.38;95.85
18821;BME280;9539;59.332;18.034;2023-02-21T08:21:25;99807.53;;;8.11;99.51
18821;BME280;9539;59.332;18.034;2023-02-21T08:23:51;99815.22;;;8.55;97.65
18821;BME280;9539;59.332;18.034;2023-02-21T08:26:13;99826.38;;;6.80;100.00
18821;BME280;9539;59.332;18.034;2023-02-21T08:28:35;99842.09;;;6.96;100.00
18821;BME280;9539;59.332;18.034;2023-02-21T08:30:57;99838.84;;;8.44;100.00
18821;BME280;9539;59.332;18.034;2023-02-21T08:33:19;99855.13;;;8.24;97.60
18821;BME280;9539;59.332;18.034;2023-02-21T08:35:41;99858.22;;;8.57;99.69
18821;BME280;9539;59.332;18.034;2023-02-21T08:38:03;99862.25;;;7.82;100.00
18821;BME280;9539;59.332;18.034;2023-02-21T08:40:26;99867.22;;;8.42;100.00
18821;BME280;9539;59.332;18.034;2023-02-21T08:42:49;99881.22;;;7.75;100.00
18821;BME280;9539;59.332;18.034;2023-02-21T08:45:15;99895.16;;;8.32;99.52
18821;BME280;9539;59.332;18.034;2023-02-21T08:47:37;99889.09;;;8.83;94.34
18821;BME280;9539;59.332;18.034;2023-02-21T08:49:59;99897.91;;;8.57;92.52
18821;BME280;9539;59.332;18.034;2023-02-21T08:52:21;99915.50;;;8.44;89.06
18821;BME280;9539;59.332;18.034;2023-02-21T08:54:43;99911.53;;;8.10;93.44
18821;BME280;9539;59.332;18.034;2023-02-21T08:57:07;99930.16;;;8.62;90.91
18821;BME280;9539;59.332;18.034;2023-02-21T08:59:29;99932.31;;;7.31;100.00
18821;BME280;9539;59.332;18.034;2023-02-21T09:01:52;99934.97;;;8.70;90.99
18821;BME280;9539;59.332;18.034;2023-02-21T09:04:14;99938.31;;;8.99;88.99
18821;BME280;9539;59.332;18.034;2023-02-21T09:06:37;99942.41;;;9.42;90.77
18821;BME280;9539;59.332;18.034;2023-02-21T09:08:59;99948.97;;;10.36;78.20
18821;BME280;9539;59.332;18.034;2023-02-21T09:11:21;99962.97;;;8.60;87.96
18821;BME280;9539;59.332;18.034;2023-02-21T09:13:44;99970.75;;;8.49;91.97
18821;BME280;9539;59.332;18.034;2023-02-21T09:16:06;99983.44;;;8.01;97.25
18821;BME280;9539;59.332;18.034;2023-02-21T09:18:29;99989.09;;;8.64;95.83
18821;BME280;9539;59.332;18.034;2023-02-21T09:20:52;100000.97;;;7.45;100.00
18821;BME280;9539;59.332;18.034;2023-02-21T09:23:17;100012.50;;;8.15;97.87
18821;BME280;9539;59.332;18.034;2023-02-21T09:25:39;100014.00;;;7.33;100.00
18821;BME280;9539;59.332;18.034;2023-02-21T09:28:01;100023.03;;;9.63;85.32
18821;BME280;9539;59.332;18.034;2023-02-21T09:30:25;100025.69;;;8.85;80.80
18821;BME280;9539;59.332;18.034;2023-02-21T09:32:49;100023.94;;;8.16;91.12
18821;BME280;9539;59.332;18.034;2023-02-21T09:35:12;100033.63;;;8.43;86.18
18821;BME280;9539;59.332;18.034;2023-02-21T09:37:36;100042.50;;;8.00;90.23
18821;BME280;9539;59.332;18.034;2023-02-21T09:39:58;100046.84;;;8.29;93.19
18821;BME280;9539;59.332;18.034;2023-02-21T09:42:23;100057.47;;;8.70;86.57
18821;BME280;9539;59.332;18.034;2023-02-21T09:44:48;100056.69;;;9.09;83.20
18821;BME280;9539;59.332;18.034;2023-02-21T09:47:15;100062.38;;;10.33;73.47
18821;BME280;9539;59.332;18.034;2023-02-21T09:49:40;100067.22;;;10.39;68.26
18821;BME280;9539;59.332;18.034;2023-02-21T09:52:02;100080.31;;;9.12;78.46
18821;BME280;9539;59.332;18.034;2023-02-21T09:54:29;100084.59;;;7.89;90.15
18821;BME280;9539;59.332;18.034;2023-02-21T09:56:53;100087.13;;;9.69;73.79
18821;BME280;9539;59.332;18.034;2023-02-21T09:59:15;100104.03;;;8.87;75.98
18821;BME280;9539;59.332;18.034;2023-02-21T10:01:52;100094.41;;;8.01;85.03
18821;BME280;9539;59.332;18.034;2023-02-21T10:04:22;100102.19;;;8.47;79.97
18821;BME280;9539;59.332;18.034;2023-02-21T10:06:51;100114.94;;;8.68;79.15
18821;BME280;9539;59.332;18.034;2023-02-21T10:09:24;100123.16;;;9.58;73.84
18821;BME280;9539;59.332;18.034;2023-02-21T10:11:56;100104.47;;;10.37;67.61
18821;BME280;9539;59.332;18.034;2023-02-21T10:14:27;100122.81;;;11.50;58.47
18821;BME280;9539;59.332;18.034;2023-02-21T10:16:55;100131.44;;;12.68;54.35
18821;BME280;9539;59.332;18.034;2023-02-21T10:19:25;100140.88;;;12.61;54.50
18821;BME280;9539;59.332;18.034;2023-02-21T10:21:53;100145.22;;;11.82;54.98
18821;BME280;9539;59.332;18.034;2023-02-21T10:24:20;100152.94;;;10.65;57.34
18821;BME280;9539;59.332;18.034;2023-02-21T10:26:47;100154.69;;;10.01;61.46
18821;BME280;9539;59.332;18.034;2023-02-21T10:29:20;100172.16;;;9.78;63.94
18821;BME280;9539;59.332;18.034;2023-02-21T10:31:43;100180.22;;;8.95;72.10
18821;BME280;9539;59.332;18.034;2023-02-21T10:34:24;100196.09;;;9.50;68.63
18821;BME280;9539;59.332;18.034;2023-02-21T10:36:47;100187.41;;;7.92;78.93
18821;BME280;9539;59.332;18.034;2023-02-21T10:39:16;100200.22;;;7.84;78.48
18821;BME280;9539;59.332;18.034;2023-02-21T10:41:40;100199.22;;;9.15;67.21
18821;BME280;9539;59.332;18.034;2023-02-21T10:44:06;100215.47;;;8.38;73.80
18821;BME280;9539;59.332;18.034;2023-02-21T10:46:32;100215.06;;;9.30;72.38
18821;BME280;9539;59.332;18.034;2023-02-21T10:49:12;100228.75;;;9.36;72.52
18821;BME280;9539;59.332;18.034;2023-02-21T10:51:39;100232.50;;;10.39;64.99
18821;BME280;9539;59.332;18.034;2023-02-21T10:54:19;100236.03;;;10.13;65.44
18821;BME280;9539;59.332;18.034;2023-02-21T10:56:41;100243.63;;;10.32;65.47
18821;BME280;9539;59.332;18.034;2023-02-21T10:59:05;100240.38;;;10.66;62.23
18821;BME280;9539;59.332;18.034;2023-02-21T11:01:41;100256.31;;;10.66;61.68
18821;BME280;9539;59.332;18.034;2023-02-21T11:04:05;100258.94;;;10.54;65.06
18821;BME280;9539;59.332;18.034;2023-02-21T11:06:32;100274.75;;;10.16;69.19
18821;BME280;9539;59.332;18.034;2023-02-21T11:08:56;100273.19;;;10.91;63.96
18821;BME280;9539;59.332;18.034;2023-02-21T11:11:31;100282.72;;;11.18;63.16
18821;BME280;9539;59.332;18.034;2023-02-21T11:14:06;100297.38;;;11.24;59.11
18821;BME280;9539;59.332;18.034;2023-02-21T11:16:28;100306.31;;;11.10;58.11
18821;BME280;9539;59.332;18.034;2023-02-21T11:19:03;100320.84;;;10.92;56.43
18821;BME280;9539;59.332;18.034;2023-02-21T11:21:25;100318.19;;;11.30;53.37
18821;BME280;9539;59.332;18.034;2023-02-21T11:23:53;100331.69;;;9.83;59.69
18821;BME280;9539;59.332;18.034;2023-02-21T11:26:18;100334.22;;;10.78;56.31
18821;BME280;9539;59.332;18.034;2023-02-21T11:28:41;100347.03;;;10.71;55.54
18821;BME280;9539;59.332;18.034;2023-02-21T11:31:14;100349.16;;;10.27;55.54
18821;BME280;9539;59.332;18.034;2023-02-21T11:33:40;100346.44;;;10.14;56.25
18821;BME280;9539;59.332;18.034;2023-02-21T11:36:10;100360.84;;;9.69;56.28
18821;BME280;9539;59.332;18.034;2023-02-21T11:38:34;100363.19;;;9.88;56.45
18821;BME280;9539;59.332;18.034;2023-02-21T11:40:57;100369.38;;;9.32;58.35
18821;BME280;9539;59.332;18.034;2023-02-21T11:43:23;100382.41;;;9.35;60.21
18821;BME280;9539;59.332;18.034;2023-02-21T11:45:58;100385.78;;;9.79;56.59
18821;BME280;9539;59.332;18.034;2023-02-21T11:48:22;100401.22;;;8.42;61.03
18821;BME280;9539;59.332;18.034;2023-02-21T11:50:52;100402.78;;;10.18;57.60
18821;BME280;9539;59.332;18.034;2023-02-21T11:53:19;100406.34;;;9.47;57.57
18821;BME280;9539;59.332;18.034;2023-02-21T11:55:49;100408.03;;;8.76;60.94
18821;BME280;9539;59.332;18.034;2023-02-21T11:58:20;100430.16;;;7.15;69.89
18821;BME280;9539;59.332;18.034;2023-02-21T12:00:49;100434.91;;;8.38;62.72
18821;BME280;9539;59.332;18.034;2023-02-21T12:03:42;100441.91;;;9.43;61.19
18821;BME280;9539;59.332;18.034;2023-02-21T12:06:11;100446.09;;;9.33;57.96
18821;BME280;9539;59.332;18.034;2023-02-21T12:08:42;100457.00;;;9.13;59.16
18821;BME280;9539;59.332;18.034;2023-02-21T12:11:16;100457.16;;;10.11;58.41
18821;BME280;9539;59.332;18.034;2023-02-21T12:13:46;100459.91;;;9.95;55.94
18821;BME280;9539;59.332;18.034;2023-02-21T12:16:29;100475.56;;;10.40;54.46
18821;BME280;9539;59.332;18.034;2023-02-21T12:19:06;100477.91;;;8.88;56.64
18821;BME280;9539;59.332;18.034;2023-02-21T12:21:51;100486.50;;;8.61;60.03
18821;BME280;9539;59.332;18.034;2023-02-21T12:24:26;100493.22;;;10.27;55.74
18821;BME280;9539;59.332;18.034;2023-02-21T12:26:56;100494.63;;;9.62;56.37
18821;BME280;9539;59.332;18.034;2023-02-21T12:29:30;100504.22;;;10.89;53.81
18821;BME280;9539;59.332;18.034;2023-02-21T12:34:56;100506.72;;;10.78;51.89
18821;BME280;9539;59.332;18.034;2023-02-21T12:37:29;100507.13;;;10.31;53.60
18821;BME280;9539;59.332;18.034;2023-02-21T12:40:07;100519.34;;;11.01;52.60
18821;BME280;9539;59.332;18.034;2023-02-21T12:42:48;100527.59;;;10.70;51.88
18821;BME280;9539;59.332;18.034;2023-02-21T12:45:27;100526.16;;;9.95;53.64
18821;BME280;9539;59.332;18.034;2023-02-21T12:48:01;100531.66;;;10.34;54.55
18821;BME280;9539;59.332;18.034;2023-02-21T12:50:29;100538.84;;;10.47;52.80
18821;BME280;9539;59.332;18.034;2023-02-21T12:52:56;100552.69;;;9.51;57.49
18821;BME280;9539;59.332;18.034;2023-02-21T12:55:24;100566.16;;;9.62;58.47
18821;BME280;9539;59.332;18.034;2023-02-21T12:57:53;100572.66;;;10.15;56.20
18821;BME280;9539;59.332;18.034;2023-02-21T13:00:20;100566.88;;;9.50;56.17
18821;BME280;9539;59.332;18.034;2023-02-21T13:02:51;100582.91;;;9.62;59.59
18821;BME280;9539;59.332;18.034;2023-02-21T13:05:30;100589.88;;;9.49;58.70
18821;BME280;9539;59.332;18.034;2023-02-21T13:07:58;100598.19;;;9.28;59.38
18821;BME280;9539;59.332;18.034;2023-02-21T13:10:24;100597.44;;;9.99;55.58
18821;BME280;9539;59.332;18.034;2023-02-21T13:12:53;100605.16;;;9.74;57.31
18821;BME280;9539;59.332;18.034;2023-02-21T13:15:20;100604.78;;;10.53;54.86
18821;BME280;9539;59.332;18.034;2023-02-21T13:17:42;100608.63;;;10.05;54.56